createdAt,value
2018-12-19T00:00:03.716Z,67.86
2018-12-19T00:00:44.476Z,68.15
2018-12-19T00:01:25.271Z,68.05
2018-12-19T00:02:06.044Z,68.24
2018-12-19T00:02:46.843Z,67.96
2018-12-19T00:03:27.562Z,67.86
2018-12-19T00:04:08.269Z,67.86
2018-12-19T00:04:48.978Z,68.05
2018-12-19T00:05:29.787Z,68.05
2018-12-19T00:06:10.590Z,68.05
2018-12-19T00:06:51.285Z,68.05
2018-12-19T00:07:32.026Z,68.05
2018-12-19T00:08:12.828Z,67.96
2018-12-19T00:08:53.586Z,68.15
2018-12-19T00:09:34.344Z,67.76
2018-12-19T00:10:15.072Z,67.86
2018-12-19T00:10:55.784Z,67.76
2018-12-19T00:11:36.493Z,67.67
2018-12-19T00:12:17.264Z,67.57
2018-12-19T00:12:58.060Z,67.76
2018-12-19T00:13:38.802Z,67.76
2018-12-19T00:14:19.467Z,68.24
2018-12-19T00:15:00.225Z,67.76
2018-12-19T00:15:41.042Z,67.76
2018-12-19T00:16:21.758Z,67.76
2018-12-19T00:17:02.501Z,67.86
2018-12-19T00:17:43.230Z,67.96
2018-12-19T00:18:24.035Z,68.15
2018-12-19T00:19:04.775Z,68.05
2018-12-19T00:19:45.559Z,67.86
2018-12-19T00:20:26.311Z,67.67
2018-12-19T00:21:07.021Z,67.67
2018-12-19T00:21:47.745Z,67.96
2018-12-19T00:22:28.482Z,67.96
2018-12-19T00:23:09.292Z,68.15
2018-12-19T00:23:50.002Z,67.86
2018-12-19T00:24:30.704Z,67.76
2018-12-19T00:25:11.519Z,67.76
2018-12-19T00:25:52.325Z,67.86
2018-12-19T00:26:33.120Z,67.76
2018-12-19T00:27:13.823Z,67.96
2018-12-19T00:27:54.600Z,67.96
2018-12-19T00:28:35.434Z,67.96
2018-12-19T00:29:16.166Z,67.86
2018-12-19T00:29:56.880Z,68.15
2018-12-19T00:30:37.607Z,67.96
2018-12-19T00:31:18.369Z,67.96
2018-12-19T00:31:59.150Z,68.05
2018-12-19T00:32:39.855Z,67.96
2018-12-19T00:33:20.586Z,68.05
2018-12-19T00:34:01.450Z,68.05
2018-12-19T00:34:42.252Z,67.67
2018-12-19T00:35:22.971Z,67.76
2018-12-19T00:36:03.666Z,68.05
2018-12-19T00:36:44.382Z,68.15
2018-12-19T00:37:25.118Z,68.15
2018-12-19T00:38:05.939Z,68.15
2018-12-19T00:38:46.708Z,67.76
2018-12-19T00:39:27.517Z,68.15
2018-12-19T00:40:08.238Z,68.15
2018-12-19T00:40:48.956Z,68.15
2018-12-19T00:41:29.758Z,68.05
2018-12-19T00:42:10.497Z,67.67
2018-12-19T00:42:51.274Z,67.47
2018-12-19T00:43:31.992Z,67.47
2018-12-19T00:44:12.696Z,67.76
2018-12-19T00:44:53.494Z,68.05
2018-12-19T00:45:34.317Z,67.76
2018-12-19T00:46:15.071Z,67.67
2018-12-19T00:46:55.766Z,67.47
2018-12-19T00:47:36.471Z,67.76
2018-12-19T00:48:17.161Z,67.47
2018-12-19T00:48:57.958Z,67.96
2018-12-19T00:49:38.669Z,67.86
2018-12-19T00:50:19.410Z,67.76
2018-12-19T00:51:00.223Z,67.76
2018-12-19T00:51:40.951Z,67.76
2018-12-19T00:52:21.785Z,67.76
2018-12-19T00:53:02.506Z,67.86
2018-12-19T00:53:43.246Z,67.86
2018-12-19T00:54:23.960Z,67.76
2018-12-19T00:55:04.756Z,67.76
2018-12-19T00:55:45.518Z,67.76
2018-12-19T00:56:26.332Z,67.76
2018-12-19T00:57:07.051Z,67.57
2018-12-19T00:57:47.810Z,67.76
2018-12-19T00:58:28.590Z,67.86
2018-12-19T00:59:09.401Z,67.86
2018-12-19T00:59:50.135Z,67.76
2018-12-19T01:00:30.820Z,67.86
2018-12-19T01:01:11.597Z,67.76
2018-12-19T01:01:52.361Z,67.96
2018-12-19T01:02:33.151Z,67.76
2018-12-19T01:03:13.896Z,67.96
2018-12-19T01:03:54.652Z,67.29
2018-12-19T01:04:35.419Z,67.47
2018-12-19T01:05:16.241Z,67.29
2018-12-19T01:05:56.988Z,67.57
2018-12-19T01:06:37.835Z,67.67
2018-12-19T01:07:18.672Z,67.57
2018-12-19T01:07:59.410Z,67.38
2018-12-19T01:08:40.108Z,67.29
2018-12-19T01:09:20.816Z,67.86
2018-12-19T01:10:01.504Z,67.09
2018-12-19T01:10:42.272Z,67.57
2018-12-19T01:11:23.075Z,67.09
2018-12-19T01:12:03.867Z,67.47
2018-12-19T01:12:44.642Z,67.67
2018-12-19T01:13:25.367Z,67.76
2018-12-19T01:14:06.126Z,67.29
2018-12-19T01:14:46.926Z,67.19
2018-12-19T01:15:27.718Z,67.38
2018-12-19T01:16:08.404Z,67.09
2018-12-19T01:16:49.121Z,67.47
2018-12-19T01:17:30.030Z,67.86
2018-12-19T01:18:10.823Z,67.96
2018-12-19T01:18:51.566Z,67.86
2018-12-19T01:19:32.293Z,67.29
2018-12-19T01:20:13.101Z,67.38
2018-12-19T01:20:53.817Z,67.57
2018-12-19T01:21:34.558Z,67.38
2018-12-19T01:22:15.267Z,67.29
2018-12-19T01:22:55.989Z,67.76
2018-12-19T01:23:36.782Z,67.76
2018-12-19T01:24:17.541Z,67.47
2018-12-19T01:24:58.275Z,67.76
2018-12-19T01:25:39.050Z,67.47
2018-12-19T01:26:19.802Z,67
2018-12-19T01:27:00.587Z,67.67
2018-12-19T01:27:41.343Z,67.47
2018-12-19T01:28:22.070Z,67.76
2018-12-19T01:29:02.770Z,67.29
2018-12-19T01:29:43.519Z,67.09
2018-12-19T01:30:24.309Z,67.57
2018-12-19T01:31:05.128Z,67.09
2018-12-19T01:31:45.877Z,66.9
2018-12-19T01:32:26.608Z,67.29
2018-12-19T01:33:07.406Z,67.19
2018-12-19T01:33:48.156Z,67.09
2018-12-19T01:34:28.860Z,66.9
2018-12-19T01:35:09.535Z,67
2018-12-19T01:35:50.308Z,66.9
2018-12-19T01:36:31.121Z,66.9
2018-12-19T01:37:11.863Z,67.29
2018-12-19T01:37:52.543Z,67.47
2018-12-19T01:38:33.320Z,66.9
2018-12-19T01:39:14.076Z,67.47
2018-12-19T01:39:54.882Z,67.47
2018-12-19T01:40:35.663Z,67.38
2018-12-19T01:41:16.387Z,66.9
2018-12-19T01:41:57.157Z,66.9
2018-12-19T01:42:37.912Z,67
2018-12-19T01:43:18.632Z,67.19
2018-12-19T01:43:59.319Z,66.9
2018-12-19T01:44:40.027Z,67
2018-12-19T01:45:20.852Z,67.09
2018-12-19T01:46:01.634Z,67
2018-12-19T01:46:42.385Z,67.19
2018-12-19T01:47:23.151Z,67.09
2018-12-19T01:48:03.906Z,67.57
2018-12-19T01:48:44.646Z,67.57
2018-12-19T01:49:25.409Z,67.29
2018-12-19T01:50:06.160Z,67.86
2018-12-19T01:50:46.882Z,67.29
2018-12-19T01:51:27.637Z,67.57
2018-12-19T01:52:08.402Z,67.57
2018-12-19T01:52:49.201Z,66.9
2018-12-19T01:53:29.944Z,67.38
2018-12-19T01:54:10.691Z,67
2018-12-19T01:54:51.418Z,66.9
2018-12-19T01:55:32.162Z,66.9
2018-12-19T01:56:12.990Z,66.9
2018-12-19T01:56:53.779Z,67.09
2018-12-19T01:57:34.538Z,67.67
2018-12-19T01:58:15.280Z,67.57
2018-12-19T01:58:56.041Z,67.29
2018-12-19T01:59:36.873Z,67.47
2018-12-19T02:00:17.619Z,67.38
2018-12-19T02:00:58.330Z,67.57
2018-12-19T02:01:39.053Z,67.47
2018-12-19T02:02:19.803Z,67.29
2018-12-19T02:03:00.560Z,67.76
2018-12-19T02:03:41.360Z,67.38
2018-12-19T02:04:22.136Z,67.29
2018-12-19T02:05:02.948Z,67.29
2018-12-19T02:05:43.649Z,67.67
2018-12-19T02:06:24.381Z,67.47
2018-12-19T02:07:05.199Z,67.47
2018-12-19T02:07:45.943Z,67.29
2018-12-19T02:08:26.666Z,67.38
2018-12-19T02:09:07.477Z,67.47
2018-12-19T02:09:48.249Z,67
2018-12-19T02:10:29.050Z,67.57
2018-12-19T02:11:09.828Z,67.76
2018-12-19T02:11:50.547Z,67.38
2018-12-19T02:12:31.328Z,67.76
2018-12-19T02:13:12.101Z,67.76
2018-12-19T02:13:52.812Z,67.67
2018-12-19T02:14:33.585Z,67.67
2018-12-19T02:15:14.283Z,67.76
2018-12-19T02:15:55.078Z,67.29
2018-12-19T02:16:35.827Z,67.57
2018-12-19T02:17:16.562Z,67.76
2018-12-19T02:17:57.350Z,67.47
2018-12-19T02:18:38.177Z,67.86
2018-12-19T02:19:18.934Z,67.86
2018-12-19T02:19:59.673Z,67.29
2018-12-19T02:20:40.389Z,67.09
2018-12-19T02:21:21.117Z,67.57
2018-12-19T02:22:01.907Z,67.76
2018-12-19T02:22:42.637Z,67.29
2018-12-19T02:23:23.468Z,67.38
2018-12-19T02:24:04.213Z,67.47
2018-12-19T02:24:44.896Z,67.29
2018-12-19T02:25:25.632Z,67.86
2018-12-19T02:26:06.381Z,67.29
2018-12-19T02:26:47.066Z,67.29
2018-12-19T02:27:27.768Z,67.76
2018-12-19T02:28:08.470Z,67.76
2018-12-19T02:28:49.317Z,67.9
2018-12-19T02:29:30.083Z,67.29
2018-12-19T02:30:10.854Z,67
2018-12-19T02:30:51.622Z,67.29
2018-12-19T02:31:32.288Z,67.57
2018-12-19T02:32:13.006Z,67.29
2018-12-19T02:32:53.738Z,67.47
2018-12-19T02:33:34.543Z,67.57
2018-12-19T02:34:15.282Z,67.09
2018-12-19T02:34:55.998Z,67.47
2018-12-19T02:35:36.746Z,67
2018-12-19T02:36:17.535Z,67.76
2018-12-19T02:36:58.322Z,67
2018-12-19T02:37:39.058Z,66.9
2018-12-19T02:38:19.879Z,67.09
2018-12-19T02:39:00.659Z,66.9
2018-12-19T02:39:41.437Z,66.93
2018-12-19T02:40:22.221Z,67.47
2018-12-19T02:41:02.999Z,68.08
2018-12-19T02:41:43.826Z,67.76
2018-12-19T02:42:24.525Z,67.96
2018-12-19T02:43:05.310Z,67.9
2018-12-19T02:43:46.087Z,67.76
2018-12-19T02:44:26.804Z,67.86
2018-12-19T02:45:07.557Z,67.86
2018-12-19T02:45:48.298Z,67.67
2018-12-19T02:46:29.065Z,67.38
2018-12-19T02:47:24.421Z,67.09
2018-12-19T02:48:05.160Z,67.29
2018-12-19T02:48:45.943Z,67
2018-12-19T02:49:26.769Z,67
2018-12-19T02:50:07.625Z,67.09
2018-12-19T02:50:48.338Z,67.41
2018-12-19T02:51:29.092Z,67.57
2018-12-19T02:52:09.906Z,67.38
2018-12-19T02:52:50.629Z,67.47
2018-12-19T02:53:31.315Z,67.19
2018-12-19T02:54:12.022Z,67.09
2018-12-19T02:54:52.780Z,67.19
2018-12-19T02:55:33.576Z,67.09
2018-12-19T02:56:14.326Z,67.38
2018-12-19T02:56:55.162Z,67.57
2018-12-19T02:57:35.824Z,67.19
2018-12-19T02:58:16.574Z,67
2018-12-19T02:58:58.233Z,67.29
2018-12-19T02:59:38.075Z,67.19
2018-12-19T03:00:18.857Z,67.09
2018-12-19T03:00:59.543Z,67.57
2018-12-19T03:01:40.344Z,67.51
2018-12-19T03:02:21.175Z,67.38
2018-12-19T03:03:01.971Z,67.32
2018-12-19T03:03:42.679Z,67.9
2018-12-19T03:04:23.373Z,67.86
2018-12-19T03:05:04.072Z,67.57
2018-12-19T03:05:44.814Z,67.76
2018-12-19T03:06:25.677Z,67.51
2018-12-19T03:07:06.460Z,67.86
2018-12-19T03:07:47.238Z,67.67
2018-12-19T03:08:27.917Z,67.47
2018-12-19T03:09:08.717Z,67.76
2018-12-19T03:09:49.526Z,67.8
2018-12-19T03:10:30.269Z,67.41
2018-12-19T03:11:10.992Z,67.09
2018-12-19T03:11:51.711Z,67.47
2018-12-19T03:12:32.441Z,67.29
2018-12-19T03:13:13.285Z,67.51
2018-12-19T03:13:54.092Z,67.09
2018-12-19T03:14:34.831Z,67.09
2018-12-19T03:15:15.609Z,67.13
2018-12-19T03:15:56.343Z,67.29
2018-12-19T03:16:37.126Z,67.09
2018-12-19T03:17:17.961Z,67.19
2018-12-19T03:17:58.676Z,67.09
2018-12-19T03:18:39.439Z,67.19
2018-12-19T03:19:20.230Z,66.93
2018-12-19T03:20:01.005Z,67.09
2018-12-19T03:20:41.796Z,67
2018-12-19T03:21:22.490Z,67.8
2018-12-19T03:22:03.218Z,67.9
2018-12-19T03:22:44.047Z,67.99
2018-12-19T03:23:24.763Z,67.38
2018-12-19T03:24:05.471Z,67.7
2018-12-19T03:24:46.191Z,67.76
2018-12-19T03:25:26.955Z,67.76
2018-12-19T03:26:07.723Z,67.67
2018-12-19T03:26:48.487Z,67.7
2018-12-19T03:27:29.214Z,67.7
2018-12-19T03:28:10.085Z,67.76
2018-12-19T03:28:50.885Z,67.47
2018-12-19T03:29:31.665Z,67.38
2018-12-19T03:30:12.447Z,67.09
2018-12-19T03:30:53.457Z,67.38
2018-12-19T03:31:33.883Z,67.8
2018-12-19T03:32:14.660Z,67.29
2018-12-19T03:32:55.453Z,67.61
2018-12-19T03:33:36.252Z,66.9
2018-12-19T03:34:16.983Z,67.09
2018-12-19T03:34:57.722Z,67
2018-12-19T03:35:38.580Z,66.93
2018-12-19T03:36:19.323Z,67.13
2018-12-19T03:37:00.059Z,67.38
2018-12-19T03:37:40.779Z,67.03
2018-12-19T03:38:21.517Z,67.29
2018-12-19T03:39:02.358Z,67.32
2018-12-19T03:39:49.978Z,67.09
2018-12-19T03:40:23.814Z,67.29
2018-12-19T03:41:04.598Z,67.03
2018-12-19T03:41:45.377Z,67.03
2018-12-19T03:42:26.179Z,67.29
2018-12-19T03:43:06.936Z,67.8
2018-12-19T03:43:47.665Z,67.86
2018-12-19T03:44:28.476Z,67.41
2018-12-19T03:45:09.187Z,67.51
2018-12-19T03:45:49.892Z,67.51
2018-12-19T03:46:30.600Z,67.51
2018-12-19T03:47:11.355Z,67.61
2018-12-19T03:47:52.154Z,67.9
2018-12-19T03:48:32.979Z,68.05
2018-12-19T03:49:13.698Z,67.7
2018-12-19T03:49:54.369Z,67.51
2018-12-19T03:50:35.084Z,67.51
2018-12-19T03:51:15.799Z,67.22
2018-12-19T03:51:56.607Z,67.32
2018-12-19T03:52:37.355Z,67.22
2018-12-19T03:53:18.072Z,67.32
2018-12-19T03:53:58.898Z,67.03
2018-12-19T03:54:39.629Z,66.93
2018-12-19T03:55:20.427Z,67.13
2018-12-19T03:56:01.111Z,67.22
2018-12-19T03:56:41.895Z,67.32
2018-12-19T03:57:22.701Z,67.22
2018-12-19T03:58:03.431Z,67.32
2018-12-19T03:58:44.146Z,67.32
2018-12-19T03:59:24.882Z,67.19
2018-12-19T04:00:05.673Z,67
2018-12-19T04:00:46.472Z,67.09
2018-12-19T04:01:27.227Z,66.93
2018-12-19T04:02:07.977Z,67.38
2018-12-19T04:02:48.798Z,67.41
2018-12-19T04:03:29.610Z,67.8
2018-12-19T04:04:10.385Z,67.8
2018-12-19T04:04:51.122Z,67.51
2018-12-19T04:05:31.844Z,67.51
2018-12-19T04:06:12.600Z,67.8
2018-12-19T04:06:53.430Z,67.32
2018-12-19T04:07:34.200Z,67.51
2018-12-19T04:08:15.038Z,67.7
2018-12-19T04:08:55.813Z,67.9
2018-12-19T04:09:36.548Z,67.13
2018-12-19T04:10:17.418Z,67.32
2018-12-19T04:10:58.136Z,66.93
2018-12-19T04:11:38.896Z,67.22
2018-12-19T04:12:19.619Z,67.03
2018-12-19T04:13:00.393Z,67.03
2018-12-19T04:13:41.247Z,67.41
2018-12-19T04:14:22.000Z,67.13
2018-12-19T04:15:02.782Z,67.19
2018-12-19T04:15:43.496Z,66.93
2018-12-19T04:16:24.220Z,67.13
2018-12-19T04:17:04.971Z,67.13
2018-12-19T04:17:45.818Z,67.22
2018-12-19T04:18:26.602Z,67.22
2018-12-19T04:19:07.325Z,67.03
2018-12-19T04:19:48.058Z,67.22
2018-12-19T04:20:28.886Z,67.51
2018-12-19T04:21:09.687Z,67.61
2018-12-19T04:21:50.397Z,67.61
2018-12-19T04:22:31.147Z,67.61
2018-12-19T04:23:11.848Z,67.41
2018-12-19T04:23:52.546Z,68.08
2018-12-19T04:24:33.346Z,67.7
2018-12-19T04:25:14.128Z,67.99
2018-12-19T04:25:54.932Z,67.99
2018-12-19T04:26:35.630Z,67.8
2018-12-19T04:27:16.394Z,67.9
2018-12-19T04:27:57.202Z,67.29
2018-12-19T04:28:37.880Z,67.38
2018-12-19T04:29:18.627Z,67
2018-12-19T04:29:59.384Z,67.8
2018-12-19T04:30:40.166Z,67.9
2018-12-19T04:31:20.975Z,67.9
2018-12-19T04:32:01.689Z,67.9
2018-12-19T04:32:42.526Z,67.9
2018-12-19T04:33:23.322Z,67.32
2018-12-19T04:34:04.106Z,67.7
2018-12-19T04:34:44.844Z,67.32
2018-12-19T04:35:25.538Z,67.8
2018-12-19T04:36:06.326Z,67.13
2018-12-19T04:36:47.122Z,67.32
2018-12-19T04:37:27.867Z,67.03
2018-12-19T04:38:08.578Z,67.29
2018-12-19T04:38:49.325Z,67.99
2018-12-19T04:39:30.162Z,68.08
2018-12-19T04:40:10.940Z,68.08
2018-12-19T04:40:51.714Z,67.99
2018-12-19T04:41:32.463Z,67.8
2018-12-19T04:42:13.237Z,67.51
2018-12-19T04:42:53.960Z,67.7
2018-12-19T04:43:34.695Z,67.51
2018-12-19T04:44:15.520Z,67.8
2018-12-19T04:44:56.216Z,67.7
2018-12-19T04:45:36.948Z,67.9
2018-12-19T04:46:17.737Z,67.61
2018-12-19T04:46:58.470Z,67.03
2018-12-19T04:47:39.248Z,67.09
2018-12-19T04:48:19.979Z,67.32
2018-12-19T04:49:00.732Z,67.22
2018-12-19T04:49:41.495Z,67.41
2018-12-19T04:50:22.196Z,67.61
2018-12-19T04:51:02.889Z,67.8
2018-12-19T04:51:43.613Z,67.99
2018-12-19T04:52:24.404Z,67.61
2018-12-19T04:53:05.150Z,68.08
2018-12-19T04:53:45.896Z,67.9
2018-12-19T04:54:26.639Z,67.9
2018-12-19T04:55:07.398Z,67.41
2018-12-19T04:55:48.178Z,67.13
2018-12-19T04:56:28.944Z,67.32
2018-12-19T04:57:09.648Z,67.32
2018-12-19T04:57:50.425Z,66.93
2018-12-19T04:58:31.173Z,67.41
2018-12-19T04:59:11.987Z,67.51
2018-12-19T04:59:52.785Z,67.51
2018-12-19T05:00:33.594Z,67.7
2018-12-19T05:01:14.291Z,67.8
2018-12-19T05:01:55.019Z,67.99
2018-12-19T05:02:35.830Z,67.9
2018-12-19T05:03:16.582Z,67.8
2018-12-19T05:03:57.304Z,67.03
2018-12-19T05:04:38.020Z,66.93
2018-12-19T05:05:18.829Z,67.03
2018-12-19T05:05:59.585Z,67.22
2018-12-19T05:06:40.292Z,67.22
2018-12-19T05:07:21.041Z,67.22
2018-12-19T05:08:01.818Z,67.32
2018-12-19T05:08:42.620Z,67.32
2018-12-19T05:09:23.365Z,67.8
2018-12-19T05:10:04.043Z,67.8
2018-12-19T05:10:44.903Z,67.32
2018-12-19T05:11:25.682Z,67.8
2018-12-19T05:12:06.387Z,67.51
2018-12-19T05:12:47.096Z,67.9
2018-12-19T05:13:27.798Z,67.7
2018-12-19T05:14:08.638Z,68.08
2018-12-19T05:14:49.364Z,67.7
2018-12-19T05:15:30.160Z,67.9
2018-12-19T05:16:10.876Z,67.32
2018-12-19T05:16:51.608Z,67.22
2018-12-19T05:17:32.329Z,67.03
2018-12-19T05:18:13.068Z,67.22
2018-12-19T05:18:53.847Z,67.61
2018-12-19T05:19:34.522Z,67.9
2018-12-19T05:20:15.249Z,67.9
2018-12-19T05:20:56.075Z,67.32
2018-12-19T05:21:36.882Z,67.32
2018-12-19T05:22:17.648Z,67.9
2018-12-19T05:22:58.321Z,67.8
2018-12-19T05:23:39.024Z,67.61
2018-12-19T05:24:19.779Z,67.8
2018-12-19T05:25:00.566Z,67.7
2018-12-19T05:25:41.322Z,67.8
2018-12-19T05:26:22.126Z,67.51
2018-12-19T05:27:02.867Z,67.7
2018-12-19T05:27:43.605Z,67.7
2018-12-19T05:28:24.379Z,67.9
2018-12-19T05:29:05.135Z,67.51
2018-12-19T05:29:45.840Z,67.8
2018-12-19T05:30:26.561Z,67.8
2018-12-19T05:31:07.317Z,67.41
2018-12-19T05:31:48.155Z,67.32
2018-12-19T05:32:28.983Z,67.61
2018-12-19T05:33:09.790Z,67.7
2018-12-19T05:33:50.560Z,67.13
2018-12-19T05:34:31.336Z,67.03
2018-12-19T05:35:12.006Z,67.22
2018-12-19T05:35:52.823Z,66.93
2018-12-19T05:36:33.551Z,67.13
2018-12-19T05:37:14.315Z,67.61
2018-12-19T05:37:55.117Z,67.61
2018-12-19T05:38:35.918Z,67.51
2018-12-19T05:39:16.694Z,67.8
2018-12-19T05:39:57.423Z,67.99
2018-12-19T05:40:38.121Z,67.51
2018-12-19T05:41:18.933Z,67.51
2018-12-19T05:41:59.668Z,67.7
2018-12-19T05:42:40.446Z,67.61
2018-12-19T05:43:21.135Z,67.51
2018-12-19T05:44:01.858Z,67.7
2018-12-19T05:44:42.656Z,67.7
2018-12-19T05:45:23.384Z,68.08
2018-12-19T05:46:04.102Z,67.8
2018-12-19T05:46:44.874Z,67.8
2018-12-19T05:47:25.630Z,67.8
2018-12-19T05:48:06.492Z,68.37
2018-12-19T05:48:47.246Z,67.8
2018-12-19T05:49:27.972Z,67.99
2018-12-19T05:50:08.692Z,67.8
2018-12-19T05:50:49.466Z,67.99
2018-12-19T05:51:30.288Z,67.8
2018-12-19T05:52:11.162Z,67.99
2018-12-19T05:52:51.871Z,67.99
2018-12-19T05:53:32.546Z,68.18
2018-12-19T05:54:13.322Z,67.8
2018-12-19T05:54:54.115Z,67.99
2018-12-19T05:55:34.798Z,68.08
2018-12-19T05:56:15.485Z,68.08
2018-12-19T05:56:56.196Z,67.9
2018-12-19T05:57:36.980Z,67.7
2018-12-19T05:58:17.704Z,67.61
2018-12-19T05:58:58.454Z,67.32
2018-12-19T05:59:39.885Z,67.32
2018-12-19T06:00:20.034Z,67.32
2018-12-19T06:01:00.858Z,67.8
2018-12-19T06:01:41.592Z,67.8
2018-12-19T06:02:22.328Z,67.8
2018-12-19T06:03:03.144Z,67.99
2018-12-19T06:03:43.932Z,68.08
2018-12-19T06:04:24.694Z,67.7
2018-12-19T06:05:05.425Z,67.7
2018-12-19T06:05:46.150Z,68.18
2018-12-19T06:06:26.916Z,67.8
2018-12-19T06:07:07.723Z,67.61
2018-12-19T06:07:48.471Z,67.9
2018-12-19T06:08:29.206Z,68.08
2018-12-19T06:09:09.917Z,67.8
2018-12-19T06:09:50.645Z,67.8
2018-12-19T06:10:31.451Z,67.7
2018-12-19T06:11:12.232Z,67.9
2018-12-19T06:11:52.971Z,68.08
2018-12-19T06:12:33.776Z,68.08
2018-12-19T06:13:14.516Z,67.9
2018-12-19T06:13:55.315Z,67.9
2018-12-19T06:14:36.075Z,68.18
2018-12-19T06:15:16.822Z,68.08
2018-12-19T06:15:57.648Z,68.08
2018-12-19T06:16:38.408Z,67.8
2018-12-19T06:17:19.111Z,67.99
2018-12-19T06:17:59.823Z,67.8
2018-12-19T06:18:40.539Z,67.61
2018-12-19T06:19:21.319Z,67.99
2018-12-19T06:20:02.080Z,67.7
2018-12-19T06:20:42.797Z,67.9
2018-12-19T06:21:23.636Z,68.28
2018-12-19T06:22:04.401Z,67.8
2018-12-19T06:22:45.232Z,67.9
2018-12-19T06:23:25.969Z,67.9
2018-12-19T06:24:06.668Z,68.76
2018-12-19T06:24:47.415Z,67.9
2018-12-19T06:25:28.159Z,68.08
2018-12-19T06:26:08.923Z,68.08
2018-12-19T06:26:49.811Z,68.08
2018-12-19T06:27:30.585Z,67.8
2018-12-19T06:28:11.299Z,68.08
2018-12-19T06:28:52.113Z,67.9
2018-12-19T06:29:32.827Z,68.08
2018-12-19T06:30:13.513Z,67.9
2018-12-19T06:30:54.273Z,67.8
2018-12-19T06:31:34.969Z,67.8
2018-12-19T06:32:15.756Z,68.28
2018-12-19T06:32:56.579Z,68.08
2018-12-19T06:33:37.425Z,68.28
2018-12-19T06:34:18.173Z,68.08
2018-12-19T06:34:58.875Z,68.08
2018-12-19T06:35:39.595Z,68.08
2018-12-19T06:36:20.349Z,67.99
2018-12-19T06:37:01.129Z,67.9
2018-12-19T06:37:41.888Z,68.37
2018-12-19T06:38:22.618Z,67.99
2018-12-19T06:39:03.439Z,68.08
2018-12-19T06:39:44.258Z,68.47
2018-12-19T06:40:25.005Z,68.57
2018-12-19T06:41:05.747Z,68.57
2018-12-19T06:41:46.466Z,68.18
2018-12-19T06:42:27.168Z,68.28
2018-12-19T06:43:07.961Z,68.28
2018-12-19T06:43:48.749Z,68.57
2018-12-19T06:44:29.549Z,68.95
2018-12-19T06:45:10.304Z,68.76
2018-12-19T06:45:51.011Z,69.05
2018-12-19T06:46:31.866Z,68.85
2018-12-19T06:47:12.632Z,68.47
2018-12-19T06:47:53.438Z,68.37
2018-12-19T06:48:34.107Z,68.37
2018-12-19T06:49:14.844Z,68.66
2018-12-19T06:49:55.738Z,68.57
2018-12-19T06:50:36.554Z,68.57
2018-12-19T06:51:17.254Z,68.47
2018-12-19T06:51:58.029Z,68.37
2018-12-19T06:52:38.867Z,68.66
2018-12-19T06:53:19.667Z,68.66
2018-12-19T06:54:00.469Z,68.66
2018-12-19T06:54:41.231Z,68.66
2018-12-19T06:55:22.074Z,68.47
2018-12-19T06:56:02.811Z,68.57
2018-12-19T06:56:43.555Z,68.57
2018-12-19T06:57:24.261Z,68.66
2018-12-19T06:58:05.044Z,68.47
2018-12-19T06:58:45.955Z,68.66
2018-12-19T06:59:26.725Z,68.37
2018-12-19T07:00:07.515Z,68.28
2018-12-19T07:00:48.195Z,68.76
2018-12-19T07:01:28.899Z,68.47
2018-12-19T07:02:09.600Z,68.66
2018-12-19T07:02:50.390Z,68.28
2018-12-19T07:03:31.224Z,68.57
2018-12-19T07:04:11.900Z,68.76
2018-12-19T07:04:52.695Z,68.76
2018-12-19T07:05:33.469Z,68.57
2018-12-19T07:06:14.274Z,69.24
2018-12-19T07:06:55.009Z,68.57
2018-12-19T07:07:35.713Z,68.37
2018-12-19T07:08:16.424Z,68.47
2018-12-19T07:08:57.151Z,68.57
2018-12-19T07:09:37.911Z,68.37
2018-12-19T07:10:18.749Z,68.28
2018-12-19T07:10:59.567Z,68.57
2018-12-19T07:11:40.277Z,68.47
2018-12-19T07:12:21.018Z,68.76
2018-12-19T07:13:01.850Z,68.95
2018-12-19T07:13:42.560Z,68.95
2018-12-19T07:14:23.275Z,68.76
2018-12-19T07:15:03.991Z,68.37
2018-12-19T07:15:44.740Z,68.57
2018-12-19T07:16:25.609Z,68.37
2018-12-19T07:17:06.407Z,68.85
2018-12-19T07:17:47.142Z,68.66
2018-12-19T07:18:27.884Z,68.66
2018-12-19T07:19:08.588Z,68.76
2018-12-19T07:19:49.341Z,68.57
2018-12-19T07:20:30.138Z,68.85
2018-12-19T07:21:10.950Z,68.37
2018-12-19T07:21:51.666Z,68.47
2018-12-19T07:22:32.498Z,68.95
2018-12-19T07:23:13.312Z,68.37
2018-12-19T07:23:54.103Z,68.76
2018-12-19T07:24:34.854Z,68.66
2018-12-19T07:25:15.558Z,68.76
2018-12-19T07:25:56.345Z,68.57
2018-12-19T07:26:37.115Z,68.85
2018-12-19T07:27:17.855Z,68.76
2018-12-19T07:27:58.643Z,68.57
2018-12-19T07:28:39.393Z,68.66
2018-12-19T07:29:20.164Z,68.66
2018-12-19T07:30:00.917Z,68.37
2018-12-19T07:30:41.647Z,68.66
2018-12-19T07:31:22.473Z,68.57
2018-12-19T07:32:03.405Z,68.57
2018-12-19T07:32:44.223Z,68.37
2018-12-19T07:33:24.961Z,68.76
2018-12-19T07:34:05.697Z,68.95
2018-12-19T07:34:46.452Z,69.14
2018-12-19T07:35:27.233Z,69.14
2018-12-19T07:36:08.125Z,69.14
2018-12-19T07:36:48.879Z,68.85
2018-12-19T07:37:29.662Z,69.24
2018-12-19T07:38:10.386Z,69.62
2018-12-19T07:38:51.174Z,69.24
2018-12-19T07:39:31.948Z,70.49
2018-12-19T07:40:12.692Z,71.55
2018-12-19T07:40:53.380Z,71.58
2018-12-19T07:41:34.114Z,71.96
2018-12-19T07:42:14.937Z,71.48
2018-12-19T07:42:55.796Z,71
2018-12-19T07:43:36.593Z,71.29
2018-12-19T07:44:17.308Z,71.1
2018-12-19T07:44:58.046Z,71.39
2018-12-19T07:45:38.769Z,71.48
2018-12-19T07:46:19.877Z,71.19
2018-12-19T07:47:00.400Z,70.62
2018-12-19T07:47:41.093Z,70.62
2018-12-19T07:48:21.884Z,70.52
2018-12-19T07:49:02.707Z,70.52
2018-12-19T07:49:43.478Z,70.43
2018-12-19T07:50:24.268Z,70.81
2018-12-19T07:51:05.041Z,70.52
2018-12-19T07:51:45.725Z,71.29
2018-12-19T07:52:27.293Z,70.62
2018-12-19T07:53:07.240Z,71.29
2018-12-19T07:53:48.066Z,71.1
2018-12-19T07:54:28.865Z,71.19
2018-12-19T07:55:09.563Z,71.29
2018-12-19T07:55:50.304Z,71.29
2018-12-19T07:56:31.098Z,70.62
2018-12-19T07:57:11.857Z,70.62
2018-12-19T07:57:52.615Z,71.29
2018-12-19T07:58:33.350Z,71.1
2018-12-19T07:59:14.097Z,71.19
2018-12-19T07:59:54.911Z,71.48
2018-12-19T08:00:35.600Z,71.48
2018-12-19T08:01:17.410Z,71.29
2018-12-19T08:01:57.135Z,71.48
2018-12-19T08:02:37.960Z,71.29
2018-12-19T08:03:18.744Z,71.39
2018-12-19T08:03:59.555Z,71.29
2018-12-19T08:04:40.285Z,71.19
2018-12-19T08:05:26.053Z,71.19
2018-12-19T08:06:02.016Z,71.29
2018-12-19T08:06:42.783Z,71.19
2018-12-19T08:07:23.473Z,71.39
2018-12-19T08:08:04.286Z,71.48
2018-12-19T08:08:45.128Z,71.58
2018-12-19T08:09:25.932Z,71.67
2018-12-19T08:10:06.716Z,71.48
2018-12-19T08:10:52.109Z,71.77
2018-12-19T08:11:28.158Z,71.48
2018-12-19T08:12:08.927Z,71.77
2018-12-19T08:12:49.721Z,71.67
2018-12-19T08:13:30.464Z,71.39
2018-12-19T08:14:11.201Z,71.39
2018-12-19T08:14:52.012Z,71.83
2018-12-19T08:15:32.839Z,72.12
2018-12-19T08:16:13.661Z,71.64
2018-12-19T08:16:54.359Z,71.55
2018-12-19T08:17:35.163Z,71.93
2018-12-19T08:18:15.976Z,72.6
2018-12-19T08:18:56.726Z,72.5
2018-12-19T08:19:37.422Z,72.5
2018-12-19T08:20:18.115Z,72.31
2018-12-19T08:20:58.862Z,72.12
2018-12-19T08:21:39.667Z,72.5
2018-12-19T08:22:20.381Z,72.02
2018-12-19T08:23:01.121Z,72.41
2018-12-19T08:23:41.915Z,72.22
2018-12-19T08:24:22.661Z,72.41
2018-12-19T08:25:03.514Z,72.5
2018-12-19T08:25:44.226Z,71.83
2018-12-19T08:26:24.942Z,72.12
2018-12-19T08:27:05.675Z,71.45
2018-12-19T08:27:46.489Z,72.02
2018-12-19T08:28:27.296Z,71.83
2018-12-19T08:29:08.113Z,71.73
2018-12-19T08:29:48.855Z,71.64
2018-12-19T08:30:29.600Z,71.73
2018-12-19T08:31:10.417Z,71.35
2018-12-19T08:31:51.156Z,71.35
2018-12-19T08:32:31.910Z,71.25
2018-12-19T08:33:12.623Z,71.73
2018-12-19T08:33:53.368Z,71.73
2018-12-19T08:34:34.165Z,71.35
2018-12-19T08:35:14.903Z,71.16
2018-12-19T08:35:55.615Z,71.64
2018-12-19T08:36:36.412Z,71.64
2018-12-19T08:37:17.159Z,71.45
2018-12-19T08:37:57.966Z,71.35
2018-12-19T08:38:38.734Z,71.35
2018-12-19T08:39:19.530Z,71.64
2018-12-19T08:40:00.372Z,71.64
2018-12-19T08:40:41.122Z,71.25
2018-12-19T08:41:21.799Z,71.55
2018-12-19T08:42:02.502Z,71.45
2018-12-19T08:42:43.240Z,71.06
2018-12-19T08:43:24.045Z,71.35
2018-12-19T08:44:04.831Z,71.55
2018-12-19T08:44:45.591Z,71.45
2018-12-19T08:45:26.340Z,71.35
2018-12-19T08:46:07.056Z,71.55
2018-12-19T08:46:47.798Z,71.45
2018-12-19T08:47:28.627Z,71.06
2018-12-19T08:48:09.350Z,71.45
2018-12-19T08:48:50.091Z,70.97